createdAt,value
2023-05-23T00:00:42.399Z,15.35
2023-05-23T00:01:42.415Z,15.45
2023-05-23T00:02:42.512Z,15.43
2023-05-23T00:03:42.436Z,15.48
2023-05-23T00:04:42.371Z,15.43
2023-05-23T00:05:42.536Z,15.42
2023-05-23T00:06:42.342Z,15.46
2023-05-23T00:07:42.335Z,15.52
2023-05-23T00:08:42.329Z,15.48
2023-05-23T00:09:42.307Z,15.42
2023-05-23T00:10:42.297Z,15.23
2023-05-23T00:11:42.291Z,15.36
2023-05-23T00:12:42.299Z,15.19
2023-05-23T00:13:42.284Z,15.15
2023-05-23T00:14:42.258Z,15.13
2023-05-23T00:15:42.385Z,15.11
2023-05-23T00:16:42.280Z,15.08
2023-05-23T00:17:42.273Z,15.08
2023-05-23T00:18:42.215Z,15.15
2023-05-23T00:19:42.220Z,15.15
2023-05-23T00:20:42.195Z,15.09
2023-05-23T00:21:42.286Z,15.13
2023-05-23T00:22:42.230Z,15.15
2023-05-23T00:23:42.162Z,15.21
2023-05-23T00:24:42.150Z,15.20
2023-05-23T00:25:42.411Z,15.12
2023-05-23T00:26:42.124Z,15.05
2023-05-23T00:27:42.134Z,15.17
2023-05-23T00:28:42.109Z,15.09
2023-05-23T00:29:42.104Z,15.08
2023-05-23T00:30:42.273Z,15.02
2023-05-23T00:31:42.135Z,14.93
2023-05-23T00:32:42.141Z,14.93
2023-05-23T00:33:42.067Z,14.80
2023-05-23T00:34:42.044Z,14.71
2023-05-23T00:35:42.186Z,14.84
2023-05-23T00:36:42.033Z,14.69
2023-05-23T00:37:42.114Z,14.62
2023-05-23T00:38:42.001Z,14.54
2023-05-23T00:39:41.993Z,14.60
2023-05-23T00:40:42.000Z,14.61
2023-05-23T00:41:41.984Z,14.61
2023-05-23T00:42:41.956Z,14.57
2023-05-23T00:43:41.952Z,14.57
2023-05-23T00:44:41.939Z,14.64
2023-05-23T00:45:42.238Z,14.65
2023-05-23T00:46:41.937Z,14.65
2023-05-23T00:47:41.940Z,14.74
2023-05-23T00:48:41.894Z,14.80
2023-05-23T00:49:41.905Z,14.84
2023-05-23T00:50:41.891Z,14.86
2023-05-23T00:51:41.880Z,14.88
2023-05-23T00:52:41.856Z,14.78
2023-05-23T00:53:41.948Z,14.90
2023-05-23T00:54:41.836Z,14.88
2023-05-23T00:55:42.082Z,14.98
2023-05-23T00:56:41.819Z,15.02
2023-05-23T00:57:41.828Z,14.99
2023-05-23T00:58:41.795Z,15.05
2023-05-23T00:59:41.785Z,15.06
2023-05-23T01:00:41.792Z,14.83
2023-05-23T01:01:41.855Z,14.67
2023-05-23T01:02:41.813Z,14.83
2023-05-23T01:03:41.877Z,14.39
2023-05-23T01:04:41.735Z,14.25
2023-05-23T01:05:42.101Z,14.12
2023-05-23T01:06:41.706Z,14.16
2023-05-23T01:07:41.711Z,14.10
2023-05-23T01:08:41.685Z,14.14
2023-05-23T01:09:41.785Z,14.12
2023-05-23T01:10:41.663Z,14.25
2023-05-23T01:11:41.660Z,14.12
2023-05-23T01:12:41.636Z,14.28
2023-05-23T01:13:41.639Z,14.25
2023-05-23T01:14:41.649Z,14.24
2023-05-23T01:15:41.837Z,14.21
2023-05-23T01:16:41.654Z,14.32
2023-05-23T01:17:41.622Z,14.25
2023-05-23T01:18:41.596Z,14.32
2023-05-23T01:19:41.581Z,14.27
2023-05-23T01:20:41.560Z,14.32
2023-05-23T01:21:41.549Z,14.32
2023-05-23T01:22:41.546Z,14.37
2023-05-23T01:23:41.541Z,14.38
2023-05-23T01:24:41.510Z,14.35
2023-05-23T01:25:41.746Z,14.37
2023-05-23T01:26:41.515Z,14.35
2023-05-23T01:27:41.487Z,14.42
2023-05-23T01:28:41.480Z,14.43
2023-05-23T01:29:41.461Z,14.43
2023-05-23T01:30:41.453Z,14.35
2023-05-23T01:31:41.476Z,14.32
2023-05-23T01:32:41.475Z,14.34
2023-05-23T01:33:41.434Z,14.38
2023-05-23T01:34:41.420Z,14.42
2023-05-23T01:35:41.574Z,14.39
2023-05-23T01:36:41.392Z,14.29
2023-05-23T01:37:41.408Z,14.32
2023-05-23T01:38:41.383Z,14.52
2023-05-23T01:39:41.360Z,14.43
2023-05-23T01:40:41.353Z,14.44
2023-05-23T01:41:41.442Z,14.53
2023-05-23T01:42:41.367Z,14.39
2023-05-23T01:43:41.321Z,14.54
2023-05-23T01:44:41.319Z,14.54
2023-05-23T01:45:41.480Z,14.35
2023-05-23T01:46:41.306Z,14.49
2023-05-23T01:47:41.334Z,14.46
2023-05-23T01:48:41.274Z,14.56
2023-05-23T01:49:41.257Z,14.56
2023-05-23T01:50:41.250Z,14.44
2023-05-23T01:51:41.251Z,14.21
2023-05-23T01:52:41.240Z,14.19
2023-05-23T01:53:41.228Z,14.10
2023-05-23T01:54:41.215Z,14.09
2023-05-23T01:55:41.383Z,14.34
2023-05-23T01:56:41.209Z,14.31
2023-05-23T01:57:41.294Z,14.35
2023-05-23T01:58:41.178Z,14.47
2023-05-23T01:59:41.162Z,14.35
2023-05-23T02:00:41.152Z,14.50
2023-05-23T02:01:41.184Z,14.38
2023-05-23T02:02:41.224Z,14.60
2023-05-23T02:03:41.143Z,14.57
2023-05-23T02:04:41.112Z,14.62
2023-05-23T02:05:41.362Z,14.52
2023-05-23T02:06:41.103Z,14.65
2023-05-23T02:07:41.082Z,14.67
2023-05-23T02:08:41.078Z,14.71
2023-05-23T02:09:41.061Z,14.80
2023-05-23T02:10:41.058Z,14.67
2023-05-23T02:11:41.037Z,14.64
2023-05-23T02:12:41.032Z,14.69
2023-05-23T02:13:41.154Z,14.74
2023-05-23T02:14:41.012Z,14.78
2023-05-23T02:15:41.153Z,14.78
2023-05-23T02:16:40.992Z,14.81
2023-05-23T02:17:40.998Z,14.84
2023-05-23T02:18:40.964Z,14.74
2023-05-23T02:19:40.992Z,14.78
2023-05-23T02:20:40.964Z,14.87
2023-05-23T02:21:40.931Z,14.86
2023-05-23T02:22:40.918Z,14.91
2023-05-23T02:23:40.915Z,14.94
2023-05-23T02:24:40.909Z,15.05
2023-05-23T02:25:41.170Z,15.12
2023-05-23T02:26:40.878Z,15.05
2023-05-23T02:27:40.895Z,15.09
2023-05-23T02:28:40.857Z,15.09
2023-05-23T02:29:40.969Z,15.21
2023-05-23T02:30:40.841Z,15.17
2023-05-23T02:31:40.940Z,15.21
2023-05-23T02:32:40.851Z,15.15
2023-05-23T02:33:40.803Z,15.11
2023-05-23T02:34:40.852Z,15.28
2023-05-23T02:35:41.031Z,15.24
2023-05-23T02:36:40.775Z,15.26
2023-05-23T02:37:40.764Z,15.31
2023-05-23T02:38:40.775Z,15.30
2023-05-23T02:39:40.762Z,15.39
2023-05-23T02:40:40.733Z,15.42
2023-05-23T02:41:40.719Z,15.39
2023-05-23T02:42:40.718Z,15.48
2023-05-23T02:43:40.703Z,15.41
2023-05-23T02:44:40.707Z,15.45
2023-05-23T02:45:40.995Z,15.41
2023-05-23T02:46:40.762Z,15.46
2023-05-23T02:47:40.684Z,15.36
2023-05-23T02:48:40.694Z,15.45
2023-05-23T02:49:40.644Z,15.46
2023-05-23T02:50:40.639Z,15.39
2023-05-23T02:51:40.625Z,15.30
2023-05-23T02:52:40.620Z,15.30
2023-05-23T02:53:40.626Z,15.35
2023-05-23T02:54:40.621Z,15.23
2023-05-23T02:55:40.802Z,15.39
2023-05-23T02:56:40.566Z,15.45
2023-05-23T02:57:40.603Z,15.46
2023-05-23T02:58:40.590Z,15.45
2023-05-23T02:59:40.536Z,15.48
2023-05-23T03:00:40.531Z,15.23
2023-05-23T03:01:40.749Z,15.36
2023-05-23T03:02:40.581Z,15.31
2023-05-23T03:03:40.560Z,15.26
2023-05-23T03:04:40.547Z,15.36
2023-05-23T03:05:40.777Z,15.31
2023-05-23T03:06:40.534Z,15.33
2023-05-23T03:07:40.501Z,15.21
2023-05-23T03:08:40.498Z,15.26
2023-05-23T03:09:40.490Z,15.26
2023-05-23T03:10:40.486Z,15.17
2023-05-23T03:11:40.478Z,15.26
2023-05-23T03:12:40.456Z,15.23
2023-05-23T03:13:40.447Z,15.19
2023-05-23T03:14:40.477Z,15.17
2023-05-23T03:15:40.574Z,15.15
2023-05-23T03:16:40.587Z,15.13
2023-05-23T03:17:40.546Z,15.11
2023-05-23T03:18:40.397Z,15.23
2023-05-23T03:19:40.476Z,15.13
2023-05-23T03:20:40.385Z,15.17
2023-05-23T03:21:40.378Z,15.24
2023-05-23T03:22:40.357Z,15.21
2023-05-23T03:23:40.352Z,15.24
2023-05-23T03:24:40.356Z,15.13
2023-05-23T03:25:40.431Z,15.20
2023-05-23T03:26:40.317Z,15.17
2023-05-23T03:27:40.303Z,15.13
2023-05-23T03:28:40.293Z,15.24
2023-05-23T03:29:40.287Z,15.26
2023-05-23T03:30:40.292Z,15.19
2023-05-23T03:31:40.321Z,15.20
2023-05-23T03:32:40.310Z,15.13
2023-05-23T03:33:40.591Z,15.15
2023-05-23T03:34:40.249Z,15.17
2023-05-23T03:35:40.354Z,15.15
2023-05-23T03:36:40.221Z,15.12
2023-05-23T03:37:40.207Z,15.21
2023-05-23T03:38:40.191Z,15.13
2023-05-23T03:39:40.189Z,15.13
2023-05-23T03:40:40.186Z,15.13
2023-05-23T03:41:40.167Z,15.21
2023-05-23T03:42:40.150Z,15.23
2023-05-23T03:43:40.142Z,15.15
2023-05-23T03:44:40.140Z,15.27
2023-05-23T03:45:40.335Z,15.28
2023-05-23T03:46:40.372Z,15.33
2023-05-23T03:47:40.155Z,15.28
2023-05-23T03:48:40.100Z,15.27
2023-05-23T03:49:40.091Z,15.45
2023-05-23T03:50:40.065Z,15.35
2023-05-23T03:51:40.051Z,15.48
2023-05-23T03:52:40.048Z,15.41
2023-05-23T03:53:40.046Z,15.48
2023-05-23T03:54:40.028Z,15.42
2023-05-23T03:55:40.166Z,15.43
2023-05-23T03:56:39.998Z,15.46
2023-05-23T03:57:39.987Z,15.59
2023-05-23T03:58:39.987Z,15.61
2023-05-23T03:59:39.964Z,15.59
2023-05-23T04:00:39.960Z,15.45
2023-05-23T04:01:39.946Z,15.56
2023-05-23T04:02:40.175Z,15.48
2023-05-23T04:03:40.001Z,15.54
2023-05-23T04:04:40.009Z,15.46
2023-05-23T04:05:40.277Z,15.56
2023-05-23T04:06:39.898Z,15.66
2023-05-23T04:07:39.891Z,15.74
2023-05-23T04:08:39.874Z,15.74
2023-05-23T04:09:39.862Z,15.76
2023-05-23T04:10:39.854Z,15.76
2023-05-23T04:11:39.856Z,15.76
2023-05-23T04:12:39.845Z,15.81
2023-05-23T04:13:39.818Z,15.81
2023-05-23T04:14:39.808Z,15.78
2023-05-23T04:15:39.946Z,15.79
2023-05-23T04:16:39.847Z,15.86
2023-05-23T04:17:39.791Z,15.82
2023-05-23T04:18:39.773Z,16.01
2023-05-23T04:19:39.792Z,15.84
2023-05-23T04:20:39.745Z,15.89
2023-05-23T04:21:39.818Z,15.85
2023-05-23T04:22:39.699Z,15.93
2023-05-23T04:23:39.680Z,15.99
2023-05-23T04:24:39.661Z,15.96
2023-05-23T04:25:39.943Z,15.88
2023-05-23T04:26:39.678Z,16.01
2023-05-23T04:27:40.502Z,15.99
2023-05-23T04:28:39.608Z,15.94
2023-05-23T04:29:39.597Z,16.15
2023-05-23T04:30:39.584Z,16.07
2023-05-23T04:31:39.611Z,15.96
2023-05-23T04:32:39.588Z,16.00
2023-05-23T04:33:39.560Z,16.03
2023-05-23T04:34:39.545Z,16.01
2023-05-23T04:35:39.722Z,16.12
2023-05-23T04:36:39.528Z,16.07
2023-05-23T04:37:39.633Z,16.06
2023-05-23T04:38:39.515Z,16.11
2023-05-23T04:39:39.491Z,16.12
2023-05-23T04:40:39.495Z,16.18
2023-05-23T04:41:39.523Z,16.18
2023-05-23T04:42:39.456Z,16.18
2023-05-23T04:43:39.451Z,16.15
2023-05-23T04:44:39.444Z,16.33
2023-05-23T04:45:39.652Z,16.15
2023-05-23T04:46:39.463Z,16.14
2023-05-23T04:47:39.481Z,16.12
2023-05-23T04:48:39.410Z,16.15
2023-05-23T04:49:39.398Z,16.22
2023-05-23T04:50:39.391Z,16.26
2023-05-23T04:51:39.391Z,16.23
2023-05-23T04:52:39.359Z,16.31
2023-05-23T04:53:39.450Z,16.27
2023-05-23T04:54:39.346Z,16.33
2023-05-23T04:55:39.497Z,16.34
2023-05-23T04:56:39.310Z,16.35
2023-05-23T04:57:39.317Z,16.35
2023-05-23T04:58:39.294Z,16.34
2023-05-23T04:59:39.299Z,16.40
2023-05-23T05:00:39.713Z,16.49
2023-05-23T05:01:39.335Z,16.44
2023-05-23T05:02:39.317Z,16.37
2023-05-23T05:03:39.308Z,16.40
2023-05-23T05:04:39.239Z,16.52
2023-05-23T05:05:39.219Z,16.38
2023-05-23T05:06:39.209Z,16.49
2023-05-23T05:07:39.200Z,16.38
2023-05-23T05:08:39.186Z,16.37
2023-05-23T05:09:39.287Z,16.49
2023-05-23T05:10:39.292Z,16.34
2023-05-23T05:11:39.158Z,16.38
2023-05-23T05:12:39.147Z,16.33
2023-05-23T05:13:39.147Z,16.33
2023-05-23T05:14:39.132Z,16.25
2023-05-23T05:15:39.116Z,16.14
2023-05-23T05:16:39.277Z,16.26
2023-05-23T05:17:39.177Z,16.22
2023-05-23T05:18:39.149Z,16.15
2023-05-23T05:19:39.153Z,16.04
2023-05-23T05:20:39.375Z,16.03
2023-05-23T05:21:39.136Z,16.06
2023-05-23T05:22:39.038Z,16.06
2023-05-23T05:23:39.127Z,16.06
2023-05-23T05:24:39.028Z,16.04
2023-05-23T05:25:39.118Z,16.01
2023-05-23T05:26:38.997Z,16.03
2023-05-23T05:27:38.993Z,15.99
2023-05-23T05:28:40.480Z,16.04
2023-05-23T05:29:45.663Z,16.01
2023-05-23T05:30:39.288Z,16.04
2023-05-23T05:31:38.986Z,16.03
2023-05-23T05:32:39.010Z,16.11
2023-05-23T05:33:38.932Z,16.09
2023-05-23T05:34:38.913Z,16.11
2023-05-23T05:35:38.910Z,16.00
2023-05-23T05:36:38.892Z,16.11
2023-05-23T05:37:39.586Z,15.96
2023-05-23T05:38:38.876Z,15.89
2023-05-23T05:39:38.869Z,15.93
2023-05-23T05:40:39.016Z,15.85
2023-05-23T05:41:38.942Z,15.88
2023-05-23T05:42:38.849Z,15.88
2023-05-23T05:43:38.829Z,15.94
2023-05-23T05:44:38.838Z,15.97
2023-05-23T05:45:38.803Z,15.82
2023-05-23T05:46:38.819Z,15.79
2023-05-23T05:47:38.871Z,15.89
2023-05-23T05:48:39.232Z,15.85
2023-05-23T05:50:14.650Z,15.86
2023-05-23T05:50:45.743Z,15.93
2023-05-23T05:51:39.106Z,15.97
2023-05-23T05:52:38.754Z,15.86
2023-05-23T05:53:38.732Z,15.94
2023-05-23T05:54:38.717Z,15.94
2023-05-23T05:55:38.702Z,16.04
2023-05-23T05:56:38.719Z,15.96
2023-05-23T05:57:38.856Z,16.04
2023-05-23T05:58:38.713Z,16.06
2023-05-23T05:59:38.676Z,16.03
2023-05-23T06:00:38.737Z,16.00
2023-05-23T06:01:38.654Z,16.11
2023-05-23T06:02:38.711Z,15.99
2023-05-23T06:03:38.794Z,15.96
2023-05-23T06:04:38.670Z,15.99
2023-05-23T06:05:38.607Z,16.03
2023-05-23T06:06:38.598Z,16.07
2023-05-23T06:07:38.627Z,16.03
2023-05-23T06:08:59.563Z,16.11
2023-05-23T06:09:38.561Z,16.23
2023-05-23T06:10:38.858Z,16.38
2023-05-23T06:12:06.164Z,16.25
2023-05-23T06:14:04.643Z,16.40
2023-05-23T06:15:07.670Z,16.63
2023-05-23T06:16:11.167Z,16.93
2023-05-23T06:19:57.557Z,17.50
2023-05-23T06:22:34.000Z,18.04
2023-05-23T06:23:22.364Z,18.22
2023-05-23T06:24:22.354Z,18.39
2023-05-23T06:25:22.344Z,18.67
2023-05-23T06:26:22.343Z,18.73
2023-05-23T06:27:22.334Z,18.70
2023-05-23T06:28:22.312Z,18.94
2023-05-23T06:29:22.498Z,18.99
2023-05-23T06:30:24.130Z,19.18
2023-05-23T06:31:22.349Z,19.11
2023-05-23T06:32:22.267Z,18.95
2023-05-23T06:33:22.247Z,18.91
2023-05-23T06:34:22.254Z,18.98
2023-05-23T06:35:22.250Z,18.76
2023-05-23T06:36:22.219Z,18.80
2023-05-23T06:37:22.205Z,18.62
2023-05-23T06:38:22.200Z,18.62
2023-05-23T06:39:22.191Z,18.52
2023-05-23T06:40:22.176Z,18.64
2023-05-23T06:41:22.167Z,18.82
2023-05-23T06:42:22.153Z,18.67
2023-05-23T06:43:22.155Z,18.83
2023-05-23T06:44:28.613Z,18.83
2023-05-23T06:45:22.145Z,18.80
2023-05-23T06:46:22.194Z,18.82
2023-05-23T06:47:22.118Z,18.72
2023-05-23T06:48:22.164Z,18.74
2023-05-23T06:49:22.088Z,18.68
2023-05-23T06:50:22.069Z,18.64
2023-05-23T06:51:22.096Z,18.65
2023-05-23T06:52:22.051Z,18.59
2023-05-23T06:53:22.045Z,18.46
2023-05-23T06:54:22.022Z,18.52
2023-05-23T06:55:22.022Z,18.54
2023-05-23T06:56:22.004Z,18.46
2023-05-23T06:57:22.023Z,18.43
2023-05-23T06:58:22.006Z,18.49
2023-05-23T06:59:21.986Z,18.28
2023-05-23T07:00:22.064Z,18.12
2023-05-23T07:01:22.013Z,18.18
2023-05-23T07:02:21.989Z,17.91
2023-05-23T07:03:22.008Z,17.82
2023-05-23T07:04:21.916Z,17.84
2023-05-23T07:05:21.929Z,17.88
2023-05-23T07:06:21.901Z,17.95
2023-05-23T07:08:50.964Z,17.91
2023-05-23T07:09:47.989Z,17.85
2023-05-23T07:10:47.858Z,17.81
2023-05-23T07:11:47.876Z,17.84
2023-05-23T07:12:47.853Z,18.02
2023-05-23T07:13:47.838Z,18.03
2023-05-23T07:14:47.820Z,17.87
2023-05-23T07:15:47.903Z,17.85
2023-05-23T07:16:47.825Z,17.94
2023-05-23T07:17:47.823Z,17.94
2023-05-23T07:18:47.795Z,18.06
2023-05-23T07:19:47.760Z,18.02
2023-05-23T07:20:47.752Z,17.91
2023-05-23T07:21:47.759Z,17.91
2023-05-23T07:22:47.736Z,17.88
2023-05-23T07:23:47.719Z,17.85
2023-05-23T07:24:47.705Z,17.91
2023-05-23T07:26:00.997Z,17.67
2023-05-23T07:26:48.961Z,17.70
2023-05-23T07:27:47.673Z,17.70
2023-05-23T07:28:47.677Z,17.69
2023-05-23T07:29:47.652Z,17.87
2023-05-23T07:30:47.689Z,17.89
2023-05-23T07:31:47.741Z,17.78
2023-05-23T07:32:47.651Z,17.78
2023-05-23T07:33:47.614Z,17.84
2023-05-23T07:34:47.601Z,17.95
2023-05-23T07:35:47.597Z,17.92
2023-05-23T07:36:47.586Z,17.99
2023-05-23T07:37:50.192Z,17.95
2023-05-23T07:38:54.488Z,18.02
2023-05-23T07:39:47.594Z,18.00
2023-05-23T07:40:55.611Z,18.13
2023-05-23T07:41:48.545Z,18.21
2023-05-23T07:42:47.514Z,18.34
2023-05-23T07:43:47.503Z,18.39
2023-05-23T07:44:47.608Z,18.52
2023-05-23T07:45:47.558Z,18.61
2023-05-23T07:46:47.546Z,18.68
2023-05-23T07:47:47.574Z,18.65
2023-05-23T07:48:47.458Z,18.72
2023-05-23T07:49:47.492Z,18.73
2023-05-23T07:50:47.435Z,18.82
2023-05-23T07:51:47.431Z,18.82
2023-05-23T07:52:47.412Z,18.87
2023-05-23T07:53:47.401Z,18.87
2023-05-23T07:54:47.417Z,18.84
2023-05-23T07:55:47.390Z,18.95
2023-05-23T07:56:47.379Z,18.98
2023-05-23T07:57:47.370Z,19.02
2023-05-23T07:58:47.361Z,19.01
2023-05-23T07:59:47.355Z,19.02
2023-05-23T08:00:47.338Z,19.11
2023-05-23T08:01:47.368Z,18.97
2023-05-23T08:02:47.348Z,18.92
2023-05-23T08:03:47.377Z,18.91
2023-05-23T08:04:47.422Z,18.80
2023-05-23T08:05:47.293Z,18.77
2023-05-23T08:07:00.642Z,18.77
2023-05-23T08:07:48.258Z,18.68
2023-05-23T08:08:47.270Z,18.77
2023-05-23T08:09:47.240Z,18.73
2023-05-23T08:10:47.256Z,18.72
2023-05-23T08:11:47.213Z,18.68
2023-05-23T08:12:47.222Z,18.61
2023-05-23T08:13:47.201Z,18.64
2023-05-23T08:14:51.361Z,18.68
2023-05-23T08:15:48.211Z,18.74
2023-05-23T08:16:47.318Z,18.70
2023-05-23T08:17:47.240Z,18.64
2023-05-23T08:20:13.140Z,18.64
2023-05-23T08:21:19.752Z,18.64
2023-05-23T08:22:14.024Z,18.61
2023-05-23T08:23:13.106Z,18.61
2023-05-23T08:24:14.937Z,18.64
2023-05-23T08:25:13.075Z,18.76
2023-05-23T08:26:13.062Z,18.72
2023-05-23T08:27:13.062Z,18.68
2023-05-23T08:28:13.040Z,18.47
2023-05-23T08:29:13.034Z,18.44
2023-05-23T08:30:13.026Z,18.43
2023-05-23T08:31:13.007Z,18.34
2023-05-23T08:32:13.131Z,18.36
2023-05-23T08:33:12.994Z,18.37
2023-05-23T08:34:12.973Z,18.28
2023-05-23T08:35:12.960Z,18.29
2023-05-23T08:36:12.968Z,18.33
2023-05-23T08:37:12.948Z,18.28
2023-05-23T08:38:12.931Z,18.24
2023-05-23T08:39:14.246Z,18.31
2023-05-23T08:40:12.913Z,18.21
2023-05-23T08:41:12.902Z,18.15
2023-05-23T08:42:12.967Z,18.06
2023-05-23T08:43:12.871Z,18.15
2023-05-23T08:44:12.863Z,18.18
2023-05-23T08:45:12.848Z,18.10
2023-05-23T08:46:12.887Z,18.06
2023-05-23T08:47:12.838Z,18.03
2023-05-23T08:48:12.817Z,17.94
2023-05-23T08:49:12.807Z,17.81
2023-05-23T08:50:12.799Z,17.78
2023-05-23T08:51:12.790Z,17.71
2023-05-23T08:52:12.793Z,17.54
2023-05-23T08:53:12.761Z,17.46
2023-05-23T08:54:16.705Z,17.47
2023-05-23T08:55:12.953Z,17.59
2023-05-23T08:56:12.938Z,17.47
2023-05-23T08:57:12.722Z,17.50
2023-05-23T08:58:12.715Z,17.44
2023-05-23T08:59:12.702Z,17.29
2023-05-23T09:00:12.710Z,17.25
2023-05-23T09:01:12.710Z,17.23
2023-05-23T09:02:12.686Z,17.14
2023-05-23T09:03:12.663Z,17.15
2023-05-23T09:04:12.665Z,17.15
2023-05-23T09:05:12.712Z,17.13
2023-05-23T09:06:12.636Z,17.26
2023-05-23T09:07:12.677Z,17.18
2023-05-23T09:08:13.237Z,17.29
2023-05-23T09:09:12.619Z,17.30
2023-05-23T09:10:12.603Z,17.23
2023-05-23T09:11:12.578Z,17.26
2023-05-23T09:12:12.571Z,17.20
2023-05-23T09:13:12.560Z,17.30
2023-05-23T09:14:12.563Z,17.35
2023-05-23T09:15:12.677Z,17.38
2023-05-23T09:16:14.331Z,17.29
2023-05-23T09:17:12.534Z,17.36
2023-05-23T09:18:12.514Z,17.43
2023-05-23T09:19:12.547Z,17.47
2023-05-23T09:20:12.496Z,17.46
2023-05-23T09:21:12.480Z,17.57
2023-05-23T09:22:12.467Z,17.46
2023-05-23T09:23:12.463Z,17.44
2023-05-23T09:24:12.464Z,17.46
2023-05-23T09:25:12.460Z,17.48
2023-05-23T09:26:12.421Z,17.43
2023-05-23T09:27:12.406Z,17.40
2023-05-23T09:28:12.425Z,17.47
2023-05-23T09:29:12.392Z,17.40
2023-05-23T09:30:12.414Z,17.41
2023-05-23T09:31:12.427Z,17.29
2023-05-23T09:32:12.406Z,17.30
2023-05-23T09:33:12.432Z,17.29
2023-05-23T09:34:12.339Z,17.15
2023-05-23T09:35:12.364Z,17.22
2023-05-23T09:36:12.312Z,17.29
2023-05-23T09:37:12.308Z,17.28
2023-05-23T09:38:12.311Z,17.32
2023-05-23T09:39:12.309Z,17.18
2023-05-23T09:40:12.367Z,17.26
2023-05-23T09:41:12.313Z,17.14
2023-05-23T09:42:12.266Z,17.25
2023-05-23T09:43:12.277Z,17.28
2023-05-23T09:44:12.251Z,17.20
2023-05-23T09:45:12.256Z,17.10
2023-05-23T09:46:12.238Z,17.23
2023-05-23T09:47:12.324Z,17.15
2023-05-23T09:48:12.240Z,17.08
2023-05-23T09:49:12.175Z,17.11
2023-05-23T09:50:12.224Z,17.15
2023-05-23T09:51:12.168Z,17.14
2023-05-23T09:52:12.158Z,17.07
2023-05-23T09:53:12.149Z,17.08
2023-05-23T09:54:12.139Z,17.00
2023-05-23T09:55:12.129Z,17.07
2023-05-23T09:56:12.111Z,16.99
2023-05-23T09:57:12.141Z,17.03
2023-05-23T09:58:12.108Z,16.89
2023-05-23T09:59:12.076Z,16.92
2023-05-23T10:00:12.105Z,16.78
2023-05-23T10:01:12.088Z,16.83
2023-05-23T10:02:12.099Z,16.85
2023-05-23T10:03:12.147Z,16.92
2023-05-23T10:04:12.064Z,16.90
2023-05-23T10:05:12.063Z,16.99
2023-05-23T10:06:12.016Z,17.00
2023-05-23T10:07:12.013Z,17.06
2023-05-23T10:08:11.978Z,17.11
2023-05-23T10:09:11.973Z,17.23
2023-05-23T10:10:11.978Z,17.30
2023-05-23T10:11:11.973Z,17.30
2023-05-23T10:12:11.942Z,17.47
2023-05-23T10:13:11.929Z,17.40
2023-05-23T10:14:11.913Z,17.41
2023-05-23T10:15:11.922Z,17.38
2023-05-23T10:16:11.899Z,17.54
2023-05-23T10:17:11.966Z,17.40
2023-05-23T10:18:11.872Z,17.40
2023-05-23T10:19:11.941Z,17.48
2023-05-23T10:20:11.864Z,17.40
2023-05-23T10:21:11.850Z,17.44
2023-05-23T10:22:11.838Z,17.47
2023-05-23T10:23:11.812Z,17.48
2023-05-23T10:24:11.810Z,17.50
2023-05-23T10:25:11.811Z,17.57
2023-05-23T10:26:11.783Z,17.47
2023-05-23T10:27:11.780Z,17.44
2023-05-23T10:28:11.774Z,17.30
2023-05-23T10:29:11.753Z,17.28
2023-05-23T10:30:11.756Z,17.43
2023-05-23T10:31:11.793Z,17.41
2023-05-23T10:32:11.723Z,17.36
2023-05-23T10:33:11.710Z,17.33
2023-05-23T10:34:11.713Z,17.50
2023-05-23T10:35:11.741Z,17.40
2023-05-23T10:36:11.707Z,17.40
2023-05-23T10:37:11.694Z,17.29
2023-05-23T10:38:11.834Z,17.25
2023-05-23T10:39:11.646Z,17.25
2023-05-23T10:40:11.633Z,17.18
2023-05-23T10:41:11.632Z,17.15
2023-05-23T10:42:11.603Z,17.26
2023-05-23T10:43:11.619Z,17.25
2023-05-23T10:44:11.591Z,17.11
2023-05-23T10:45:11.575Z,17.11
2023-05-23T10:46:11.647Z,17.11
2023-05-23T10:47:11.591Z,17.08
2023-05-23T10:48:11.767Z,16.93
2023-05-23T10:49:11.531Z,16.70
2023-05-23T10:50:11.588Z,16.70
2023-05-23T10:51:11.506Z,16.67
2023-05-23T10:52:11.502Z,16.59
2023-05-23T10:53:11.497Z,16.60
2023-05-23T10:54:11.503Z,16.45
2023-05-23T10:55:11.464Z,16.42
2023-05-23T10:56:11.463Z,16.53
2023-05-23T10:57:11.452Z,16.53
2023-05-23T10:58:11.464Z,16.48
2023-05-23T10:59:11.419Z,16.49
2023-05-23T11:00:11.453Z,16.50
2023-05-23T11:01:11.409Z,16.48
2023-05-23T11:02:11.528Z,16.44
2023-05-23T11:03:11.561Z,16.56
2023-05-23T11:04:11.411Z,16.55
2023-05-23T11:05:11.357Z,16.55
2023-05-23T11:06:11.354Z,16.70
2023-05-23T11:07:11.344Z,16.67
2023-05-23T11:08:11.319Z,16.68
2023-05-23T11:09:11.314Z,16.78
2023-05-23T11:10:11.354Z,16.86
2023-05-23T11:11:11.302Z,16.92
2023-05-23T11:12:11.349Z,16.86
2023-05-23T11:13:11.297Z,16.81
2023-05-23T11:14:11.262Z,16.96
2023-05-23T11:15:11.252Z,16.98
2023-05-23T11:16:11.253Z,16.89
2023-05-23T11:17:11.229Z,16.88
2023-05-23T11:18:11.250Z,16.89
2023-05-23T11:19:11.339Z,16.81
2023-05-23T11:20:13.874Z,16.92
2023-05-23T11:22:12.282Z,16.81
2023-05-23T11:23:11.166Z,16.75
2023-05-23T11:24:11.385Z,16.68
2023-05-23T11:25:11.172Z,16.71
2023-05-23T11:26:11.152Z,16.59
2023-05-23T11:27:11.134Z,16.56
2023-05-23T11:28:11.134Z,16.48
2023-05-23T11:29:11.160Z,16.48
2023-05-23T11:30:11.138Z,16.35
2023-05-23T11:31:11.107Z,16.31
2023-05-23T11:32:16.027Z,16.30
2023-05-23T11:33:12.136Z,16.42
2023-05-23T11:34:11.065Z,16.45
2023-05-23T11:35:11.074Z,16.42
2023-05-23T11:36:11.065Z,16.49
2023-05-23T11:37:11.041Z,16.52
2023-05-23T11:38:11.769Z,16.33
2023-05-23T11:39:11.292Z,16.34
2023-05-23T11:40:11.128Z,16.37
2023-05-23T11:41:11.074Z,16.44
2023-05-23T11:42:10.980Z,16.41
2023-05-23T11:43:11.025Z,16.42
2023-05-23T11:44:11.026Z,16.55
2023-05-23T12:05:58.674Z,16.07
2023-05-23T12:06:42.690Z,16.03
2023-05-23T12:07:42.222Z,15.97
2023-05-23T12:08:42.218Z,16.04
2023-05-23T12:22:58.361Z,15.89
2023-05-23T12:23:36.753Z,16.04
2023-05-23T12:24:36.711Z,15.96
2023-05-23T12:25:36.687Z,15.85
2023-05-23T12:26:36.687Z,15.93
2023-05-23T12:27:36.684Z,15.89
2023-05-23T12:28:36.705Z,15.78
2023-05-23T12:29:36.647Z,15.86
2023-05-23T12:30:36.672Z,15.79
2023-05-23T12:31:36.699Z,15.84
2023-05-23T12:32:36.780Z,15.93
2023-05-23T12:33:40.295Z,15.93
2023-05-23T12:34:36.603Z,15.86
2023-05-23T12:35:36.591Z,15.93
2023-05-23T12:36:44.854Z,15.85
2023-05-23T12:37:37.572Z,15.99
2023-05-23T12:38:36.742Z,15.89
2023-05-23T12:39:43.341Z,16.01
2023-05-23T12:40:36.551Z,16.01
2023-05-23T12:41:36.534Z,15.97
2023-05-23T12:42:36.517Z,15.84
2023-05-23T12:43:36.505Z,15.86
2023-05-23T12:44:36.494Z,15.88
2023-05-23T12:45:36.560Z,15.92
2023-05-23T12:46:36.513Z,15.82
2023-05-23T12:47:36.498Z,15.88
2023-05-23T12:48:36.472Z,15.96
2023-05-23T12:49:37.317Z,15.84
2023-05-23T12:50:36.444Z,15.76
2023-05-23T12:51:36.427Z,15.61
2023-05-23T12:52:36.424Z,15.75
2023-05-23T12:53:36.406Z,15.67
2023-05-23T12:54:36.452Z,15.57
2023-05-23T12:55:36.403Z,15.64
2023-05-23T12:56:36.380Z,15.63
2023-05-23T12:57:36.477Z,15.56
2023-05-23T12:58:36.366Z,15.57
2023-05-23T12:59:36.428Z,15.57
2023-05-23T13:03:28.981Z,15.35
2023-05-23T13:04:31.071Z,15.31
2023-05-23T13:05:28.313Z,15.41
2023-05-23T13:06:28.359Z,15.30
2023-05-23T13:07:28.372Z,15.27
2023-05-23T13:08:28.333Z,15.30
2023-05-23T13:09:28.264Z,15.35
2023-05-23T13:10:30.896Z,15.30
2023-05-23T13:11:28.240Z,15.31
2023-05-23T13:12:28.229Z,15.30
2023-05-23T13:13:28.330Z,15.23
2023-05-23T13:14:28.259Z,15.27
2023-05-23T13:15:28.199Z,15.15
2023-05-23T13:16:28.223Z,15.23
2023-05-23T13:17:28.220Z,15.17
2023-05-23T13:18:28.177Z,15.08
2023-05-23T13:19:28.225Z,15.03
2023-05-23T13:20:28.149Z,15.12
2023-05-23T13:21:28.163Z,15.03
2023-05-23T13:22:28.123Z,15.15
2023-05-23T13:23:28.185Z,15.06
2023-05-23T13:24:28.125Z,15.11
2023-05-23T13:25:28.083Z,15.06
2023-05-23T13:26:28.089Z,15.12
2023-05-23T13:27:28.123Z,15.17
2023-05-23T13:28:28.078Z,15.15
2023-05-23T13:29:28.047Z,15.23
2023-05-23T13:30:28.040Z,15.12
2023-05-23T13:31:28.055Z,15.11
2023-05-23T13:32:28.055Z,15.03
2023-05-23T13:33:28.042Z,15.15
2023-05-23T13:34:28.009Z,15.11
2023-05-23T13:35:27.979Z,15.17
2023-05-23T13:36:27.978Z,15.20
2023-05-23T13:37:28.000Z,15.11
2023-05-23T13:38:30.528Z,15.24